createdAt,value
2023-02-12T00:01:36.455Z,15.52
2023-02-12T00:04:05.486Z,14.68
2023-02-12T00:06:41.688Z,16.65
2023-02-12T00:09:19.150Z,15.90
2023-02-12T00:11:49.209Z,18.05
2023-02-12T00:14:17.190Z,19.38
2023-02-12T00:16:46.113Z,19.90
2023-02-12T00:19:26.085Z,19.08
2023-02-12T00:22:10.177Z,17.58
2023-02-12T00:24:44.236Z,17.45
2023-02-12T00:27:19.447Z,20.30
2023-02-12T00:29:49.277Z,17.35
2023-02-12T00:32:27.297Z,18.13
2023-02-12T00:34:55.577Z,22.77
2023-02-12T00:37:23.396Z,18.48
2023-02-12T00:39:53.428Z,19.27
2023-02-12T00:43:04.391Z,19.45
2023-02-12T00:45:32.436Z,20.95
2023-02-12T00:48:07.510Z,20.42
2023-02-12T00:50:35.231Z,21.42
2023-02-12T00:53:11.257Z,23.52
2023-02-12T00:55:48.402Z,18.55
2023-02-12T00:58:20.564Z,19.73
2023-02-12T01:00:48.516Z,21.92
2023-02-12T01:03:18.363Z,20.33
2023-02-12T01:05:46.209Z,20.42
2023-02-12T01:08:16.895Z,19.40
2023-02-12T01:10:59.338Z,19.50
2023-02-12T01:13:33.838Z,17.98
2023-02-12T01:16:20.443Z,19.52
2023-02-12T01:19:24.350Z,20.73
2023-02-12T01:21:52.149Z,22.00
2023-02-12T01:24:38.240Z,23.50
2023-02-12T01:27:28.000Z,26.33
2023-02-12T01:30:09.009Z,25.70
2023-02-12T01:32:49.137Z,23.70
2023-02-12T01:35:20.001Z,28.95
2023-02-12T01:38:01.331Z,25.83
2023-02-12T01:43:55.385Z,25.73
2023-02-12T01:46:23.328Z,25.58
2023-02-12T01:48:58.131Z,26.27
2023-02-12T01:51:35.977Z,24.63
2023-02-12T01:54:18.559Z,25.48
2023-02-12T01:56:50.694Z,24.58
2023-02-12T01:59:29.117Z,28.85
2023-02-12T02:02:04.873Z,28.20
2023-02-12T02:04:38.086Z,27.15
2023-02-12T02:07:18.314Z,29.70
2023-02-12T02:09:52.903Z,28.80
2023-02-12T02:12:50.291Z,30.25
2023-02-12T02:15:29.339Z,28.75
2023-02-12T02:21:35.261Z,33.58
2023-02-12T02:27:21.660Z,30.98
2023-02-12T02:30:14.550Z,36.83
2023-02-12T02:32:52.414Z,33.28
2023-02-12T02:35:45.186Z,30.83
2023-02-12T02:38:25.217Z,31.25
2023-02-12T02:44:09.006Z,31.58
2023-02-12T02:47:03.926Z,33.60
2023-02-12T02:49:47.799Z,30.95
2023-02-12T02:52:35.969Z,30.85
2023-02-12T02:55:16.457Z,30.17
2023-02-12T02:57:53.927Z,31.10
2023-02-12T03:00:48.557Z,31.48
2023-02-12T03:03:39.189Z,29.85
2023-02-12T03:06:13.958Z,33.42
2023-02-12T03:09:10.566Z,27.88
2023-02-12T03:12:04.287Z,29.17
2023-02-12T03:14:34.810Z,35.08
2023-02-12T03:17:24.561Z,32.40
2023-02-12T03:20:13.870Z,29.25
2023-02-12T03:22:52.723Z,29.10
2023-02-12T03:25:42.078Z,31.50
2023-02-12T03:28:32.865Z,29.55
2023-02-12T03:31:20.454Z,32.10
2023-02-12T03:34:21.208Z,31.20
2023-02-12T03:37:17.934Z,29.90
2023-02-12T03:39:59.716Z,28.92
2023-02-12T03:42:48.950Z,30.83
2023-02-12T03:45:42.028Z,29.27
2023-02-12T03:48:30.252Z,33.20
2023-02-12T03:51:08.318Z,30.23
2023-02-12T03:53:36.089Z,35.53
2023-02-12T03:56:06.722Z,40.92
2023-02-12T03:58:56.548Z,35.35
2023-02-12T04:01:40.034Z,34.95
2023-02-12T04:04:15.847Z,45.22
2023-02-12T04:06:44.050Z,32.95
2023-02-12T04:09:14.530Z,35.90
2023-02-12T04:12:08.337Z,32.10
2023-02-12T04:15:08.925Z,37.10
2023-02-12T04:17:42.082Z,32.00
2023-02-12T04:20:38.456Z,34.10
2023-02-12T04:23:26.523Z,33.13
2023-02-12T04:26:19.324Z,31.35
2023-02-12T04:28:55.183Z,32.33
2023-02-12T04:32:01.808Z,34.25
2023-02-12T04:34:32.337Z,30.83
2023-02-12T04:37:07.065Z,32.50
2023-02-12T04:39:41.414Z,31.20
2023-02-12T04:42:13.566Z,32.95
2023-02-12T04:44:55.858Z,40.90
2023-02-12T04:47:24.729Z,35.35
2023-02-12T04:49:54.448Z,36.03
2023-02-12T04:52:39.939Z,36.55
2023-02-12T04:55:26.509Z,31.75
2023-02-12T04:57:55.157Z,37.22
2023-02-12T05:00:49.949Z,35.10
2023-02-12T05:03:51.234Z,36.83
2023-02-12T05:06:25.464Z,34.75
2023-02-12T05:09:00.182Z,31.52
2023-02-12T05:11:38.365Z,37.83
2023-02-12T05:14:06.491Z,33.92
2023-02-12T05:16:34.294Z,34.92
2023-02-12T05:19:15.487Z,35.80
2023-02-12T05:25:01.919Z,33.95
2023-02-12T05:27:45.131Z,33.20
2023-02-12T05:30:23.268Z,31.05
2023-02-12T05:33:05.540Z,28.80
2023-02-12T05:35:38.603Z,30.10
2023-02-12T05:38:06.329Z,28.25
2023-02-12T05:40:34.331Z,30.58
2023-02-12T05:43:02.598Z,30.25
2023-02-12T05:45:46.137Z,30.98
2023-02-12T05:48:25.370Z,30.45
2023-02-12T05:51:08.900Z,31.02
2023-02-12T05:53:38.379Z,31.27
2023-02-12T05:56:12.453Z,28.85
2023-02-12T05:58:40.746Z,29.05
2023-02-12T06:01:29.481Z,27.02
2023-02-12T06:04:02.616Z,30.02
2023-02-12T06:06:50.151Z,29.58
2023-02-12T06:09:18.025Z,31.85
2023-02-12T06:11:50.999Z,28.08
2023-02-12T06:14:25.069Z,28.25
2023-02-12T06:16:54.741Z,29.83
2023-02-12T06:19:27.495Z,30.67
2023-02-12T06:22:02.467Z,28.27
2023-02-12T06:24:57.400Z,29.00
2023-02-12T06:27:30.428Z,27.38
2023-02-12T06:29:59.412Z,27.38
2023-02-12T06:32:33.339Z,28.75
2023-02-12T06:35:03.237Z,26.05
2023-02-12T06:37:47.409Z,27.45
2023-02-12T06:40:28.605Z,24.77
2023-02-12T06:46:08.961Z,27.60
2023-02-12T06:48:54.320Z,26.27
2023-02-12T06:51:39.458Z,26.15
2023-02-12T06:54:19.103Z,27.33
2023-02-12T06:56:50.127Z,25.70
2023-02-12T06:59:24.107Z,25.85
2023-02-12T07:02:08.169Z,24.95
2023-02-12T07:04:55.343Z,26.73
2023-02-12T07:07:33.885Z,26.55
2023-02-12T07:10:20.364Z,29.17
2023-02-12T07:12:56.319Z,27.13
2023-02-12T07:15:25.375Z,27.45
2023-02-12T07:17:54.400Z,26.50
2023-02-12T07:20:31.810Z,25.35
2023-02-12T07:23:13.887Z,25.88
2023-02-12T07:25:43.726Z,23.30
2023-02-12T07:28:11.608Z,23.10
2023-02-12T07:30:41.688Z,25.52
2023-02-12T07:33:14.888Z,24.52
2023-02-12T07:35:43.598Z,23.92
2023-02-12T07:38:12.692Z,23.08
2023-02-12T07:41:10.967Z,23.02
2023-02-12T07:43:48.079Z,23.77
2023-02-12T07:46:31.052Z,20.65
2023-02-12T07:49:00.090Z,24.33
2023-02-12T07:51:34.251Z,25.15
2023-02-12T07:54:08.960Z,22.80
2023-02-12T07:57:11.567Z,22.90
2023-02-12T07:59:39.711Z,23.35
2023-02-12T08:02:11.947Z,23.17
2023-02-12T08:04:39.799Z,23.15
2023-02-12T08:07:14.041Z,24.92
2023-02-12T08:09:46.099Z,22.55
2023-02-12T08:12:16.199Z,24.42
2023-02-12T08:15:18.057Z,24.58
2023-02-12T08:20:15.894Z,21.70
2023-02-12T08:23:04.089Z,22.92
2023-02-12T08:25:41.150Z,24.27
2023-02-12T08:28:17.565Z,21.27
2023-02-12T08:30:46.453Z,22.80
2023-02-12T08:33:25.578Z,22.88
2023-02-12T08:36:02.108Z,21.38
2023-02-12T08:38:42.837Z,22.77
2023-02-12T08:41:14.582Z,22.38
2023-02-12T08:43:43.782Z,21.27
2023-02-12T08:46:21.929Z,21.58
2023-02-12T08:48:50.339Z,21.83
2023-02-12T08:51:24.451Z,23.98
2023-02-12T08:53:56.246Z,22.17
2023-02-12T08:56:24.664Z,21.65
2023-02-12T08:59:06.100Z,20.95
2023-02-12T09:01:39.544Z,21.83
2023-02-12T09:04:26.795Z,20.25
2023-02-12T09:06:59.671Z,22.58
2023-02-12T09:09:30.508Z,20.77
2023-02-12T09:12:11.466Z,20.88
2023-02-12T09:14:49.343Z,19.42
2023-02-12T09:17:28.548Z,20.52
2023-02-12T09:19:58.658Z,19.75
2023-02-12T09:22:33.663Z,20.48
2023-02-12T09:25:03.450Z,21.33
2023-02-12T09:27:36.483Z,20.95
2023-02-12T09:30:11.782Z,21.33
2023-02-12T09:32:40.658Z,22.30
2023-02-12T09:35:15.477Z,21.70
2023-02-12T09:37:46.004Z,20.50
2023-02-12T09:43:40.352Z,20.25
2023-02-12T09:46:28.576Z,19.25
2023-02-12T09:48:59.105Z,20.13
2023-02-12T09:51:34.284Z,18.83
2023-02-12T09:54:28.267Z,18.48
2023-02-12T09:57:00.152Z,19.52
2023-02-12T09:59:56.854Z,17.83
2023-02-12T10:02:29.035Z,18.75
2023-02-12T10:05:01.735Z,18.80
2023-02-12T10:07:49.639Z,18.85
2023-02-12T10:10:36.479Z,18.55
2023-02-12T10:13:29.618Z,17.23
2023-02-12T10:16:18.296Z,15.68
2023-02-12T10:19:05.205Z,17.08
2023-02-12T10:21:57.059Z,16.95
2023-02-12T10:24:30.247Z,17.10
2023-02-12T10:27:07.100Z,17.50
2023-02-12T10:29:54.403Z,16.15
2023-02-12T10:32:26.310Z,15.27
2023-02-12T10:35:14.863Z,15.90
2023-02-12T10:38:03.400Z,17.92
2023-02-12T10:41:03.197Z,17.08
2023-02-12T10:43:32.147Z,16.10
2023-02-12T10:46:20.314Z,17.42
2023-02-12T10:49:02.281Z,17.52
2023-02-12T10:51:49.950Z,17.27
2023-02-12T10:54:42.856Z,16.40
2023-02-12T10:57:42.579Z,18.02
2023-02-12T11:00:36.073Z,16.95
2023-02-12T11:03:16.016Z,17.10
2023-02-12T11:05:56.391Z,17.10
2023-02-12T11:08:30.916Z,16.75
2023-02-12T11:11:05.186Z,15.45
2023-02-12T11:13:53.946Z,16.88
2023-02-12T11:16:44.902Z,14.77
2023-02-12T11:19:24.068Z,16.98
2023-02-12T11:21:52.199Z,15.70
2023-02-12T11:24:48.692Z,16.85
2023-02-12T11:27:25.879Z,15.02
2023-02-12T11:30:18.864Z,13.80
2023-02-12T11:32:58.973Z,13.70
2023-02-12T11:36:01.442Z,15.40
2023-02-12T11:38:35.796Z,14.05
2023-02-12T11:41:22.965Z,15.25
2023-02-12T11:44:09.442Z,13.43
2023-02-12T11:46:39.997Z,12.95
2023-02-12T11:49:21.360Z,12.83
2023-02-12T11:51:51.609Z,13.32
2023-02-12T11:54:28.043Z,12.93
2023-02-12T11:57:06.130Z,14.07
2023-02-12T11:59:46.898Z,14.50
2023-02-12T12:02:39.502Z,13.55
2023-02-12T12:05:16.956Z,14.18
2023-02-12T12:07:56.976Z,14.20
2023-02-12T12:10:32.648Z,12.95
2023-02-12T12:13:03.602Z,15.23
2023-02-12T12:15:57.878Z,15.30
2023-02-12T12:18:57.234Z,16.65
2023-02-12T12:22:01.307Z,15.73
2023-02-12T12:24:50.055Z,16.35
2023-02-12T12:30:39.120Z,15.32
2023-02-12T12:33:30.052Z,15.35
2023-02-12T12:36:10.545Z,15.95
2023-02-12T12:38:56.867Z,14.40
2023-02-12T12:41:40.051Z,16.58
2023-02-12T12:44:19.961Z,15.68
2023-02-12T12:47:26.851Z,16.10
2023-02-12T12:50:17.208Z,15.43
2023-02-12T12:52:58.056Z,16.02
2023-02-12T12:55:44.979Z,15.70
2023-02-12T12:58:31.481Z,17.38
2023-02-12T13:01:22.215Z,17.80
2023-02-12T13:04:18.031Z,18.03
2023-02-12T13:06:48.927Z,17.45
2023-02-12T13:09:40.481Z,16.73
2023-02-12T13:12:22.258Z,17.25
2023-02-12T13:15:12.312Z,15.95
2023-02-12T13:17:56.866Z,15.18
2023-02-12T13:20:42.052Z,16.15
2023-02-12T13:23:47.596Z,16.63
2023-02-12T13:26:31.933Z,16.65
2023-02-12T13:29:24.596Z,15.32
2023-02-12T13:32:15.465Z,16.13
2023-02-12T13:34:51.735Z,17.05
2023-02-12T13:37:42.691Z,17.23
2023-02-12T13:40:19.445Z,15.70
2023-02-12T13:42:53.184Z,16.92
2023-02-12T13:45:33.284Z,15.85
2023-02-12T13:48:16.008Z,15.60
2023-02-12T13:54:32.863Z,17.60
2023-02-12T13:57:02.781Z,16.70
2023-02-12T13:59:47.407Z,17.13
2023-02-12T14:02:30.819Z,14.98
2023-02-12T14:05:20.039Z,15.45
2023-02-12T14:08:06.529Z,15.63
2023-02-12T14:10:41.665Z,16.05
2023-02-12T14:13:17.679Z,16.70
2023-02-12T14:15:59.428Z,15.90
2023-02-12T14:18:45.648Z,15.10
2023-02-12T14:21:13.855Z,15.52
2023-02-12T14:23:56.149Z,13.98
2023-02-12T14:26:37.748Z,19.50
2023-02-12T14:31:59.416Z,14.75
2023-02-12T14:34:47.576Z,13.20
2023-02-12T14:37:19.710Z,12.25
2023-02-12T14:39:47.631Z,13.18
2023-02-12T14:42:35.416Z,13.75
2023-02-12T14:45:04.242Z,13.63
2023-02-12T14:47:36.369Z,14.20
2023-02-12T14:50:16.195Z,14.70
2023-02-12T14:52:50.088Z,14.15
2023-02-12T14:55:29.018Z,13.13
2023-02-12T14:58:25.751Z,14.48
2023-02-12T15:01:01.752Z,13.93
2023-02-12T15:03:40.585Z,12.90
2023-02-12T15:06:10.622Z,10.68
2023-02-12T15:08:57.174Z,11.32
2023-02-12T15:11:51.143Z,11.25
2023-02-12T15:14:23.108Z,12.52
2023-02-12T15:16:56.031Z,12.75
2023-02-12T15:19:40.862Z,10.77
2023-02-12T15:22:30.959Z,11.77
2023-02-12T15:25:21.144Z,10.50
2023-02-12T15:28:03.051Z,11.60
2023-02-12T15:30:32.751Z,10.80
2023-02-12T15:33:04.389Z,13.00
2023-02-12T15:35:39.139Z,13.00
2023-02-12T15:38:20.050Z,12.40
2023-02-12T15:40:57.190Z,11.95
2023-02-12T15:43:36.085Z,11.27
2023-02-12T15:46:09.047Z,10.93
2023-02-12T15:48:38.121Z,11.18
2023-02-12T15:51:09.928Z,11.40
2023-02-12T15:53:41.758Z,10.85
2023-02-12T15:56:33.457Z,10.85
2023-02-12T15:59:07.095Z,12.23
2023-02-12T16:01:36.322Z,10.50
2023-02-12T16:04:07.969Z,10.35
2023-02-12T16:06:38.210Z,11.50
2023-02-12T16:09:30.810Z,12.00
2023-02-12T16:12:02.846Z,10.43
2023-02-12T16:14:41.941Z,10.95
2023-02-12T16:17:30.137Z,11.27
2023-02-12T16:20:19.124Z,10.25
2023-02-12T16:22:57.081Z,10.30
2023-02-12T16:25:27.613Z,11.30
2023-02-12T16:27:55.463Z,11.30
2023-02-12T16:30:40.003Z,10.98
2023-02-12T16:33:30.137Z,11.05
2023-02-12T16:36:22.194Z,11.85
2023-02-12T16:38:51.579Z,11.82
2023-02-12T16:41:29.874Z,10.45
2023-02-12T16:44:03.767Z,11.80
2023-02-12T16:46:45.833Z,11.38
2023-02-12T16:49:21.294Z,11.52
2023-02-12T16:51:59.508Z,12.23
2023-02-12T16:54:34.407Z,11.55
2023-02-12T16:57:30.638Z,11.15
2023-02-12T16:59:59.612Z,9.95
2023-02-12T17:02:27.495Z,10.82
2023-02-12T17:05:10.470Z,10.63
2023-02-12T17:07:40.374Z,11.85
2023-02-12T17:10:19.435Z,14.82
2023-02-12T17:12:54.820Z,14.90
2023-02-12T17:15:37.313Z,18.13
2023-02-12T17:18:05.627Z,17.95
2023-02-12T17:20:33.579Z,25.38
2023-02-12T17:23:06.048Z,21.45
2023-02-12T17:25:44.627Z,18.65
2023-02-12T17:28:18.933Z,17.98
2023-02-12T17:30:49.917Z,19.08
2023-02-12T17:33:18.356Z,18.50
2023-02-12T17:35:46.561Z,19.13
2023-02-12T17:38:26.378Z,19.33
2023-02-12T17:40:59.651Z,21.08
2023-02-12T17:43:36.570Z,19.88
2023-02-12T17:46:10.409Z,19.17
2023-02-12T17:48:38.729Z,20.60
2023-02-12T17:51:07.572Z,19.40
2023-02-12T17:53:37.979Z,19.77
2023-02-12T17:56:06.086Z,20.98
2023-02-12T17:58:34.990Z,19.45
2023-02-12T18:01:10.690Z,18.02
2023-02-12T18:03:39.123Z,19.25
2023-02-12T18:06:08.366Z,19.23
2023-02-12T18:08:43.436Z,16.40
2023-02-12T18:11:13.858Z,12.32
2023-02-12T18:13:44.020Z,18.10
2023-02-12T18:16:27.538Z,21.80
2023-02-12T18:19:13.820Z,19.75
2023-02-12T18:21:45.812Z,19.80
2023-02-12T18:24:19.505Z,19.50
2023-02-12T18:26:48.786Z,19.23
2023-02-12T18:29:22.616Z,19.50
2023-02-12T18:31:50.613Z,26.05
2023-02-12T18:34:19.801Z,30.02
2023-02-12T18:36:52.657Z,24.33
2023-02-12T18:39:22.740Z,21.88
2023-02-12T18:41:52.721Z,20.73
2023-02-12T18:44:20.829Z,20.65
2023-02-12T18:46:51.877Z,21.38
2023-02-12T18:49:20.103Z,20.63
2023-02-12T18:51:51.048Z,20.52
2023-02-12T18:54:24.463Z,20.35
2023-02-12T18:56:53.723Z,22.42
2023-02-12T18:59:22.804Z,18.65
2023-02-12T19:01:54.888Z,18.38
2023-02-12T19:04:24.974Z,18.13
2023-02-12T19:07:00.325Z,17.50
2023-02-12T19:09:33.180Z,16.50
2023-02-12T19:12:02.154Z,19.20
2023-02-12T19:14:30.481Z,19.17
2023-02-12T19:17:09.698Z,19.70
2023-02-12T19:19:43.837Z,21.83
2023-02-12T19:22:20.654Z,22.83
2023-02-12T19:24:54.937Z,22.90
2023-02-12T19:27:29.015Z,20.15
2023-02-12T19:29:58.859Z,21.30
2023-02-12T19:32:35.433Z,22.70
2023-02-12T19:35:06.421Z,22.40
2023-02-12T19:37:41.774Z,21.42
2023-02-12T19:40:10.089Z,22.15
2023-02-12T19:42:38.252Z,22.60
2023-02-12T19:45:08.608Z,22.65
2023-02-12T19:47:49.212Z,20.60
2023-02-12T19:50:17.330Z,20.10
2023-02-12T19:53:03.631Z,16.27
2023-02-12T19:55:31.576Z,16.38
2023-02-12T19:58:07.885Z,16.67
2023-02-12T20:00:47.370Z,17.23
2023-02-12T20:03:21.394Z,17.40
2023-02-12T20:05:54.341Z,15.18
2023-02-12T20:08:25.335Z,15.95
2023-02-12T20:11:04.418Z,16.85
2023-02-12T20:13:35.859Z,16.63
2023-02-12T20:18:32.065Z,12.50
2023-02-12T20:21:02.852Z,12.75
2023-02-12T20:23:31.961Z,12.15
2023-02-12T20:26:07.153Z,13.68
2023-02-12T20:28:45.080Z,11.52
2023-02-12T20:31:14.947Z,14.13
2023-02-12T20:33:46.619Z,14.75
2023-02-12T20:36:33.462Z,13.98
2023-02-12T20:39:03.127Z,12.88
2023-02-12T20:41:41.695Z,15.40
2023-02-12T20:44:12.752Z,14.77
2023-02-12T20:46:43.647Z,13.68
2023-02-12T20:49:19.840Z,14.27
2023-02-12T20:51:50.225Z,27.88
2023-02-12T20:54:23.234Z,30.63
2023-02-12T20:56:56.381Z,25.50
2023-02-12T20:59:24.377Z,24.67
2023-02-12T21:01:57.191Z,29.58
2023-02-12T21:04:24.922Z,36.42
2023-02-12T21:06:53.115Z,24.17
2023-02-12T21:09:21.227Z,26.27
2023-02-12T21:11:49.387Z,29.58
2023-02-12T21:14:22.768Z,36.00
2023-02-12T21:16:56.605Z,41.10
2023-02-12T21:19:28.868Z,41.55
2023-02-12T21:22:14.355Z,36.88
2023-02-12T21:24:42.623Z,32.28
2023-02-12T21:27:16.899Z,27.83
2023-02-12T21:29:46.881Z,37.30
2023-02-12T21:32:16.044Z,38.70
2023-02-12T21:34:48.834Z,38.25
2023-02-12T21:37:17.802Z,40.70
2023-02-12T21:39:45.691Z,32.95
2023-02-12T21:42:25.838Z,43.03
2023-02-12T21:44:54.749Z,40.45
2023-02-12T21:47:22.795Z,25.67
2023-02-12T21:49:55.709Z,22.17
2023-02-12T21:52:23.616Z,26.90
2023-02-12T21:54:51.645Z,26.42
2023-02-12T21:57:26.717Z,25.23
2023-02-12T21:59:55.629Z,25.63
2023-02-12T22:02:24.880Z,31.30
2023-02-12T22:04:54.970Z,36.33
2023-02-12T22:07:24.928Z,47.90
2023-02-12T22:09:56.652Z,29.05
2023-02-12T22:12:24.428Z,32.70
2023-02-12T22:14:58.529Z,35.30
2023-02-12T22:17:42.296Z,32.80
2023-02-12T22:20:14.444Z,45.17
2023-02-12T22:22:50.726Z,33.00
2023-02-12T22:25:18.731Z,33.13
2023-02-12T22:27:48.690Z,31.75
2023-02-12T22:30:22.780Z,45.30
2023-02-12T22:32:51.610Z,42.92
2023-02-12T22:35:28.737Z,35.78
2023-02-12T22:38:10.359Z,38.08
2023-02-12T22:40:39.617Z,52.40
2023-02-12T22:43:18.446Z,45.47
2023-02-12T22:46:23.263Z,28.67
2023-02-12T22:49:07.267Z,38.55
2023-02-12T22:51:49.113Z,28.20
2023-02-12T22:54:25.825Z,29.15
2023-02-12T22:56:55.459Z,30.48
2023-02-12T22:59:28.837Z,27.67
2023-02-12T23:02:00.784Z,35.25
2023-02-12T23:04:31.405Z,35.33
2023-02-12T23:07:12.977Z,34.33
2023-02-12T23:12:18.430Z,35.70
2023-02-12T23:14:47.757Z,31.60
2023-02-12T23:17:22.960Z,32.60
2023-02-12T23:19:51.254Z,30.45
2023-02-12T23:22:19.526Z,25.10
2023-02-12T23:24:56.658Z,25.17
2023-02-12T23:27:27.995Z,19.15
2023-02-12T23:29:55.977Z,30.20
2023-02-12T23:32:26.661Z,30.85
2023-02-12T23:34:54.997Z,34.30
2023-02-12T23:37:30.586Z,37.20
2023-02-12T23:39:58.994Z,24.40
2023-02-12T23:42:27.136Z,22.23
2023-02-12T23:44:56.888Z,22.63
2023-02-12T23:47:31.137Z,34.00
2023-02-12T23:50:08.572Z,41.20
2023-02-12T23:52:42.615Z,36.13
2023-02-12T23:55:12.628Z,31.95
2023-02-12T23:57:46.985Z,35.38
